sensor_id;sensor_type;location;lat;lon;timestamp;temperature;humidity
37844;DHT22;23930;57.632;18.292;2022-07-23T00:00:18;18.00;99.90
37844;DHT22;23930;57.632;18.292;2022-07-23T00:02:45;18.00;99.90
37844;DHT22;23930;57.632;18.292;2022-07-23T00:05:12;18.00;99.90
37844;DHT22;23930;57.632;18.292;2022-07-23T00:07:39;18.00;99.90
37844;DHT22;23930;57.632;18.292;2022-07-23T00:10:07;18.00;99.90
37844;DHT22;23930;57.632;18.292;2022-07-23T00:12:35;18.00;99.90
37844;DHT22;23930;57.632;18.292;2022-07-23T00:15:03;18.20;99.90
37844;DHT22;23930;57.632;18.292;2022-07-23T00:17:31;18.20;99.90
37844;DHT22;23930;57.632;18.292;2022-07-23T00:19:58;18.30;99.90
37844;DHT22;23930;57.632;18.292;2022-07-23T00:22:26;18.40;99.90
37844;DHT22;23930;57.632;18.292;2022-07-23T00:24:54;18.40;99.90
37844;DHT22;23930;57.632;18.292;2022-07-23T00:27:41;18.40;99.90
37844;DHT22;23930;57.632;18.292;2022-07-23T00:30:09;18.40;99.90
37844;DHT22;23930;57.632;18.292;2022-07-23T00:32:50;18.40;99.90
37844;DHT22;23930;57.632;18.292;2022-07-23T00:35:25;18.40;99.90
37844;DHT22;23930;57.632;18.292;2022-07-23T00:37:52;18.40;99.90
37844;DHT22;23930;57.632;18.292;2022-07-23T00:40:19;18.40;99.90
37844;DHT22;23930;57.632;18.292;2022-07-23T00:42:46;18.30;99.90
37844;DHT22;23930;57.632;18.292;2022-07-23T00:45:13;18.30;99.90
37844;DHT22;23930;57.632;18.292;2022-07-23T00:47:40;18.30;99.90
37844;DHT22;23930;57.632;18.292;2022-07-23T00:50:08;18.30;99.90
37844;DHT22;23930;57.632;18.292;2022-07-23T00:52:37;18.20;99.90
37844;DHT22;23930;57.632;18.292;2022-07-23T00:55:06;18.20;99.90
37844;DHT22;23930;57.632;18.292;2022-07-23T00:57:33;18.10;99.90
37844;DHT22;23930;57.632;18.292;2022-07-23T01:00:04;18.10;99.90
37844;DHT22;23930;57.632;18.292;2022-07-23T01:02:32;18.10;99.90
37844;DHT22;23930;57.632;18.292;2022-07-23T01:04:59;18.20;99.90
37844;DHT22;23930;57.632;18.292;2022-07-23T01:07:26;18.10;99.90
37844;DHT22;23930;57.632;18.292;2022-07-23T01:09:54;18.10;99.90
37844;DHT22;23930;57.632;18.292;2022-07-23T01:12:21;18.00;99.90
37844;DHT22;23930;57.632;18.292;2022-07-23T01:14:58;18.00;99.90
37844;DHT22;23930;57.632;18.292;2022-07-23T01:17:28;18.00;99.90
37844;DHT22;23930;57.632;18.292;2022-07-23T01:19:55;17.90;99.90
37844;DHT22;23930;57.632;18.292;2022-07-23T01:22:23;17.90;99.90
37844;DHT22;23930;57.632;18.292;2022-07-23T01:24:50;17.90;99.90
37844;DHT22;23930;57.632;18.292;2022-07-23T01:27:21;17.90;99.90
37844;DHT22;23930;57.632;18.292;2022-07-23T01:29:54;17.90;99.90
37844;DHT22;23930;57.632;18.292;2022-07-23T01:32:21;17.90;99.90
37844;DHT22;23930;57.632;18.292;2022-07-23T01:34:48;17.90;99.90
37844;DHT22;23930;57.632;18.292;2022-07-23T01:37:15;17.90;99.90
37844;DHT22;23930;57.632;18.292;2022-07-23T01:39:43;17.90;99.90
37844;DHT22;23930;57.632;18.292;2022-07-23T01:42:11;17.90;99.90
37844;DHT22;23930;57.632;18.292;2022-07-23T01:44:39;17.90;99.90
37844;DHT22;23930;57.632;18.292;2022-07-23T01:47:11;17.90;99.90
37844;DHT22;23930;57.632;18.292;2022-07-23T01:49:38;17.90;99.90
37844;DHT22;23930;57.632;18.292;2022-07-23T01:52:28;17.90;99.90
37844;DHT22;23930;57.632;18.292;2022-07-23T01:54:55;17.90;99.90
37844;DHT22;23930;57.632;18.292;2022-07-23T01:57:22;17.90;99.90
37844;DHT22;23930;57.632;18.292;2022-07-23T01:59:49;17.90;99.90
37844;DHT22;23930;57.632;18.292;2022-07-23T02:02:18;18.00;99.90
37844;DHT22;23930;57.632;18.292;2022-07-23T02:04:45;17.90;99.90
37844;DHT22;23930;57.632;18.292;2022-07-23T02:07:15;17.90;99.90
37844;DHT22;23930;57.632;18.292;2022-07-23T02:09:42;18.00;99.90
37844;DHT22;23930;57.632;18.292;2022-07-23T02:12:11;17.90;99.90
37844;DHT22;23930;57.632;18.292;2022-07-23T02:14:38;17.90;99.90
37844;DHT22;23930;57.632;18.292;2022-07-23T02:17:05;17.90;99.90
37844;DHT22;23930;57.632;18.292;2022-07-23T02:19:34;17.90;99.90
37844;DHT22;23930;57.632;18.292;2022-07-23T02:22:01;17.90;99.90
37844;DHT22;23930;57.632;18.292;2022-07-23T02:24:28;17.90;99.90
37844;DHT22;23930;57.632;18.292;2022-07-23T02:26:55;17.90;99.90
37844;DHT22;23930;57.632;18.292;2022-07-23T02:29:22;17.90;99.90
37844;DHT22;23930;57.632;18.292;2022-07-23T02:31:49;17.90;99.90
37844;DHT22;23930;57.632;18.292;2022-07-23T02:34:16;17.80;99.90
37844;DHT22;23930;57.632;18.292;2022-07-23T02:36:43;17.90;99.90
37844;DHT22;23930;57.632;18.292;2022-07-23T02:39:11;17.80;99.90
37844;DHT22;23930;57.632;18.292;2022-07-23T02:41:38;17.80;99.90
37844;DHT22;23930;57.632;18.292;2022-07-23T02:44:05;17.80;99.90
37844;DHT22;23930;57.632;18.292;2022-07-23T02:46:32;17.80;99.90
37844;DHT22;23930;57.632;18.292;2022-07-23T02:49:00;17.80;99.90
37844;DHT22;23930;57.632;18.292;2022-07-23T02:51:30;17.80;99.90
37844;DHT22;23930;57.632;18.292;2022-07-23T02:54:01;17.80;99.90
37844;DHT22;23930;57.632;18.292;2022-07-23T02:56:28;17.80;99.90
37844;DHT22;23930;57.632;18.292;2022-07-23T02:58:56;17.80;99.90
37844;DHT22;23930;57.632;18.292;2022-07-23T03:01:23;17.80;99.90
37844;DHT22;23930;57.632;18.292;2022-07-23T03:03:50;17.80;99.90
37844;DHT22;23930;57.632;18.292;2022-07-23T03:06:17;17.70;99.90
37844;DHT22;23930;57.632;18.292;2022-07-23T03:08:45;17.70;99.90
37844;DHT22;23930;57.632;18.292;2022-07-23T03:11:12;17.70;99.90
37844;DHT22;23930;57.632;18.292;2022-07-23T03:13:41;17.70;99.90
37844;DHT22;23930;57.632;18.292;2022-07-23T03:16:08;17.70;99.90
37844;DHT22;23930;57.632;18.292;2022-07-23T03:18:36;17.70;99.90
37844;DHT22;23930;57.632;18.292;2022-07-23T03:21:08;17.60;99.90
37844;DHT22;23930;57.632;18.292;2022-07-23T03:23:36;17.60;99.90
37844;DHT22;23930;57.632;18.292;2022-07-23T03:26:03;17.60;99.90
37844;DHT22;23930;57.632;18.292;2022-07-23T03:28:31;17.60;99.90
37844;DHT22;23930;57.632;18.292;2022-07-23T03:30:58;17.60;99.90
37844;DHT22;23930;57.632;18.292;2022-07-23T03:33:25;17.60;99.90
37844;DHT22;23930;57.632;18.292;2022-07-23T03:35:53;17.50;99.90
37844;DHT22;23930;57.632;18.292;2022-07-23T03:38:29;17.60;99.90
37844;DHT22;23930;57.632;18.292;2022-07-23T03:40:56;17.60;99.90
37844;DHT22;23930;57.632;18.292;2022-07-23T03:43:23;17.50;99.90
37844;DHT22;23930;57.632;18.292;2022-07-23T03:45:52;17.50;99.90
37844;DHT22;23930;57.632;18.292;2022-07-23T03:48:19;17.50;99.90
37844;DHT22;23930;57.632;18.292;2022-07-23T03:50:46;17.50;99.90
37844;DHT22;23930;57.632;18.292;2022-07-23T03:53:13;17.50;99.90
37844;DHT22;23930;57.632;18.292;2022-07-23T03:55:40;17.50;99.90
37844;DHT22;23930;57.632;18.292;2022-07-23T03:58:07;17.50;99.90
37844;DHT22;23930;57.632;18.292;2022-07-23T04:00:34;17.50;99.90
37844;DHT22;23930;57.632;18.292;2022-07-23T04:03:02;17.50;99.90
37844;DHT22;23930;57.632;18.292;2022-07-23T04:05:29;17.50;99.90
37844;DHT22;23930;57.632;18.292;2022-07-23T04:08:05;17.60;99.90
37844;DHT22;23930;57.632;18.292;2022-07-23T04:10:34;17.60;99.90
37844;DHT22;23930;57.632;18.292;2022-07-23T04:13:03;17.60;99.90
37844;DHT22;23930;57.632;18.292;2022-07-23T04:15:29;17.60;99.90
37844;DHT22;23930;57.632;18.292;2022-07-23T04:17:57;17.60;99.90
37844;DHT22;23930;57.632;18.292;2022-07-23T04:20:31;17.70;99.90
37844;DHT22;23930;57.632;18.292;2022-07-23T04:23:05;17.70;99.90
37844;DHT22;23930;57.632;18.292;2022-07-23T04:25:32;17.70;99.90
37844;DHT22;23930;57.632;18.292;2022-07-23T04:27:59;17.80;99.90
37844;DHT22;23930;57.632;18.292;2022-07-23T04:30:26;17.80;99.90
37844;DHT22;23930;57.632;18.292;2022-07-23T04:32:54;17.80;99.90
37844;DHT22;23930;57.632;18.292;2022-07-23T04:35:26;17.80;99.90
37844;DHT22;23930;57.632;18.292;2022-07-23T04:37:57;17.80;99.90
37844;DHT22;23930;57.632;18.292;2022-07-23T04:40:24;17.80;99.90
37844;DHT22;23930;57.632;18.292;2022-07-23T04:42:51;17.80;99.90
37844;DHT22;23930;57.632;18.292;2022-07-23T04:45:18;17.80;99.90
37844;DHT22;23930;57.632;18.292;2022-07-23T04:47:47;17.80;99.90
37844;DHT22;23930;57.632;18.292;2022-07-23T04:50:14;17.70;99.90
37844;DHT22;23930;57.632;18.292;2022-07-23T04:52:45;17.70;99.90
37844;DHT22;23930;57.632;18.292;2022-07-23T04:55:12;17.70;99.90
37844;DHT22;23930;57.632;18.292;2022-07-23T04:57:39;17.80;99.90
37844;DHT22;23930;57.632;18.292;2022-07-23T05:00:08;17.80;99.90
37844;DHT22;23930;57.632;18.292;2022-07-23T05:02:35;17.80;99.90
37844;DHT22;23930;57.632;18.292;2022-07-23T05:05:02;17.80;99.90
37844;DHT22;23930;57.632;18.292;2022-07-23T05:07:29;17.80;99.90
37844;DHT22;23930;57.632;18.292;2022-07-23T05:09:56;17.80;99.90
37844;DHT22;23930;57.632;18.292;2022-07-23T05:12:23;17.80;99.90
37844;DHT22;23930;57.632;18.292;2022-07-23T05:14:50;17.90;99.90
37844;DHT22;23930;57.632;18.292;2022-07-23T05:17:19;17.90;99.90
37844;DHT22;23930;57.632;18.292;2022-07-23T05:19:46;17.90;99.90
37844;DHT22;23930;57.632;18.292;2022-07-23T05:22:13;17.90;99.90
37844;DHT22;23930;57.632;18.292;2022-07-23T05:24:40;17.80;99.90
37844;DHT22;23930;57.632;18.292;2022-07-23T05:27:07;17.90;99.90
37844;DHT22;23930;57.632;18.292;2022-07-23T05:29:35;17.90;99.90
37844;DHT22;23930;57.632;18.292;2022-07-23T05:32:02;17.90;99.90
37844;DHT22;23930;57.632;18.292;2022-07-23T05:34:31;18.00;99.90
37844;DHT22;23930;57.632;18.292;2022-07-23T05:36:59;17.90;99.90
37844;DHT22;23930;57.632;18.292;2022-07-23T05:39:26;18.00;99.90
37844;DHT22;23930;57.632;18.292;2022-07-23T05:41:53;18.00;99.90
37844;DHT22;23930;57.632;18.292;2022-07-23T05:44:20;18.00;99.90
37844;DHT22;23930;57.632;18.292;2022-07-23T05:46:47;18.00;99.90
37844;DHT22;23930;57.632;18.292;2022-07-23T05:49:19;18.00;99.90
37844;DHT22;23930;57.632;18.292;2022-07-23T05:52:05;18.00;99.90
37844;DHT22;23930;57.632;18.292;2022-07-23T05:54:51;18.10;99.90
37844;DHT22;23930;57.632;18.292;2022-07-23T05:57:18;18.10;99.90
37844;DHT22;23930;57.632;18.292;2022-07-23T05:59:51;18.10;99.90
37844;DHT22;23930;57.632;18.292;2022-07-23T06:02:17;18.10;99.90
37844;DHT22;23930;57.632;18.292;2022-07-23T06:04:44;18.10;99.90
37844;DHT22;23930;57.632;18.292;2022-07-23T06:07:24;18.10;99.90
37844;DHT22;23930;57.632;18.292;2022-07-23T06:09:51;18.10;99.90
37844;DHT22;23930;57.632;18.292;2022-07-23T06:12:18;18.10;99.90
37844;DHT22;23930;57.632;18.292;2022-07-23T06:14:45;18.20;99.90
37844;DHT22;23930;57.632;18.292;2022-07-23T06:17:15;18.20;99.90
37844;DHT22;23930;57.632;18.292;2022-07-23T06:19:42;18.20;99.90
37844;DHT22;23930;57.632;18.292;2022-07-23T06:22:09;18.30;99.90
37844;DHT22;23930;57.632;18.292;2022-07-23T06:24:36;18.40;99.90
37844;DHT22;23930;57.632;18.292;2022-07-23T06:27:04;18.30;99.90
37844;DHT22;23930;57.632;18.292;2022-07-23T06:29:31;18.30;99.90
37844;DHT22;23930;57.632;18.292;2022-07-23T06:31:58;18.40;99.90
37844;DHT22;23930;57.632;18.292;2022-07-23T06:34:25;18.50;99.90
37844;DHT22;23930;57.632;18.292;2022-07-23T06:36:55;18.60;99.90
37844;DHT22;23930;57.632;18.292;2022-07-23T06:39:22;18.70;99.90
37844;DHT22;23930;57.632;18.292;2022-07-23T06:41:50;18.70;99.90
37844;DHT22;23930;57.632;18.292;2022-07-23T06:44:35;18.70;99.90
37844;DHT22;23930;57.632;18.292;2022-07-23T06:47:01;18.70;99.90
37844;DHT22;23930;57.632;18.292;2022-07-23T06:49:29;18.60;99.90
37844;DHT22;23930;57.632;18.292;2022-07-23T06:51:57;18.60;99.90
37844;DHT22;23930;57.632;18.292;2022-07-23T06:54:23;18.70;99.90
37844;DHT22;23930;57.632;18.292;2022-07-23T06:56:51;18.60;99.90
37844;DHT22;23930;57.632;18.292;2022-07-23T06:59:18;18.50;99.90
37844;DHT22;23930;57.632;18.292;2022-07-23T07:01:45;18.50;99.90
37844;DHT22;23930;57.632;18.292;2022-07-23T07:04:12;18.60;99.90
37844;DHT22;23930;57.632;18.292;2022-07-23T07:06:39;18.70;99.90
37844;DHT22;23930;57.632;18.292;2022-07-23T07:09:06;18.60;99.90
37844;DHT22;23930;57.632;18.292;2022-07-23T07:11:33;18.60;99.90
37844;DHT22;23930;57.632;18.292;2022-07-23T07:13:59;18.70;99.90
37844;DHT22;23930;57.632;18.292;2022-07-23T07:16:26;18.80;99.90
37844;DHT22;23930;57.632;18.292;2022-07-23T07:18:58;18.80;99.90
37844;DHT22;23930;57.632;18.292;2022-07-23T07:21:26;18.70;99.90
37844;DHT22;23930;57.632;18.292;2022-07-23T07:23:52;18.70;99.90
37844;DHT22;23930;57.632;18.292;2022-07-23T07:26:19;18.80;99.90
37844;DHT22;23930;57.632;18.292;2022-07-23T07:28:46;19.00;99.90
37844;DHT22;23930;57.632;18.292;2022-07-23T07:31:13;19.00;99.90
37844;DHT22;23930;57.632;18.292;2022-07-23T07:33:41;19.00;99.90
37844;DHT22;23930;57.632;18.292;2022-07-23T07:36:08;19.00;99.90
37844;DHT22;23930;57.632;18.292;2022-07-23T07:38:35;18.90;99.90
37844;DHT22;23930;57.632;18.292;2022-07-23T07:41:02;18.90;99.90
37844;DHT22;23930;57.632;18.292;2022-07-23T07:43:29;19.00;99.90
37844;DHT22;23930;57.632;18.292;2022-07-23T07:45:56;19.20;99.90
37844;DHT22;23930;57.632;18.292;2022-07-23T07:48:23;19.10;99.90
37844;DHT22;23930;57.632;18.292;2022-07-23T07:50:50;19.30;99.90
37844;DHT22;23930;57.632;18.292;2022-07-23T07:53:18;19.30;99.90
37844;DHT22;23930;57.632;18.292;2022-07-23T07:55:45;19.50;99.90
37844;DHT22;23930;57.632;18.292;2022-07-23T07:58:17;19.60;99.90
37844;DHT22;23930;57.632;18.292;2022-07-23T08:00:44;19.50;99.90
37844;DHT22;23930;57.632;18.292;2022-07-23T08:03:11;19.40;99.90
37844;DHT22;23930;57.632;18.292;2022-07-23T08:05:39;19.20;99.90
37844;DHT22;23930;57.632;18.292;2022-07-23T08:08:06;19.20;99.90
37844;DHT22;23930;57.632;18.292;2022-07-23T08:10:33;19.20;99.90
37844;DHT22;23930;57.632;18.292;2022-07-23T08:13:00;19.30;99.90
37844;DHT22;23930;57.632;18.292;2022-07-23T08:15:29;19.30;99.90
37844;DHT22;23930;57.632;18.292;2022-07-23T08:17:56;19.20;99.90
37844;DHT22;23930;57.632;18.292;2022-07-23T08:20:24;19.20;99.90
37844;DHT22;23930;57.632;18.292;2022-07-23T08:22:57;19.30;99.90
37844;DHT22;23930;57.632;18.292;2022-07-23T08:25:29;19.40;99.90
37844;DHT22;23930;57.632;18.292;2022-07-23T08:27:58;19.20;99.90
37844;DHT22;23930;57.632;18.292;2022-07-23T08:30:25;19.20;99.90
37844;DHT22;23930;57.632;18.292;2022-07-23T08:33:07;19.30;99.90
37844;DHT22;23930;57.632;18.292;2022-07-23T08:35:57;19.50;99.90
37844;DHT22;23930;57.632;18.292;2022-07-23T08:38:24;19.60;99.90
37844;DHT22;23930;57.632;18.292;2022-07-23T08:40:56;19.70;99.90
37844;DHT22;23930;57.632;18.292;2022-07-23T08:43:31;19.60;99.90
37844;DHT22;23930;57.632;18.292;2022-07-23T08:46:00;19.50;99.90
37844;DHT22;23930;57.632;18.292;2022-07-23T08:48:29;19.50;99.90
37844;DHT22;23930;57.632;18.292;2022-07-23T08:50:59;19.40;99.90
37844;DHT22;23930;57.632;18.292;2022-07-23T08:53:28;19.40;99.90
37844;DHT22;23930;57.632;18.292;2022-07-23T08:55:57;19.30;99.90
37844;DHT22;23930;57.632;18.292;2022-07-23T08:58:25;19.40;99.90
37844;DHT22;23930;57.632;18.292;2022-07-23T09:00:55;19.40;99.90
37844;DHT22;23930;57.632;18.292;2022-07-23T09:03:33;19.40;99.90
37844;DHT22;23930;57.632;18.292;2022-07-23T09:06:01;19.60;99.90
37844;DHT22;23930;57.632;18.292;2022-07-23T09:11:08;19.90;99.90
37844;DHT22;23930;57.632;18.292;2022-07-23T09:13:41;19.90;99.90
37844;DHT22;23930;57.632;18.292;2022-07-23T09:16:13;19.80;99.90
37844;DHT22;23930;57.632;18.292;2022-07-23T09:18:55;19.80;99.90
37844;DHT22;23930;57.632;18.292;2022-07-23T09:24:03;19.60;99.90
37844;DHT22;23930;57.632;18.292;2022-07-23T09:29:05;20.00;99.90
37844;DHT22;23930;57.632;18.292;2022-07-23T09:31:41;20.30;99.90
37844;DHT22;23930;57.632;18.292;2022-07-23T09:34:13;20.40;99.90
37844;DHT22;23930;57.632;18.292;2022-07-23T09:36:41;20.40;99.90
37844;DHT22;23930;57.632;18.292;2022-07-23T09:39:09;20.50;99.90
37844;DHT22;23930;57.632;18.292;2022-07-23T09:44:13;20.50;99.90
37844;DHT22;23930;57.632;18.292;2022-07-23T09:46:41;20.50;99.90
37844;DHT22;23930;57.632;18.292;2022-07-23T09:49:18;20.60;99.90
37844;DHT22;23930;57.632;18.292;2022-07-23T09:51:57;20.60;99.90
37844;DHT22;23930;57.632;18.292;2022-07-23T09:54:33;20.30;99.90
37844;DHT22;23930;57.632;18.292;2022-07-23T09:57:10;20.20;99.90
37844;DHT22;23930;57.632;18.292;2022-07-23T09:59:43;20.40;99.90
37844;DHT22;23930;57.632;18.292;2022-07-23T10:02:11;20.60;99.90
37844;DHT22;23930;57.632;18.292;2022-07-23T10:05:03;20.40;99.90
37844;DHT22;23930;57.632;18.292;2022-07-23T10:07:51;20.50;99.90
37844;DHT22;23930;57.632;18.292;2022-07-23T10:10:58;20.20;99.90
37844;DHT22;23930;57.632;18.292;2022-07-23T10:13:44;20.20;99.90
37844;DHT22;23930;57.632;18.292;2022-07-23T10:16:27;20.30;99.90
37844;DHT22;23930;57.632;18.292;2022-07-23T10:18:54;20.20;99.90
37844;DHT22;23930;57.632;18.292;2022-07-23T10:21:27;20.00;99.90
37844;DHT22;23930;57.632;18.292;2022-07-23T10:24:12;19.90;99.90
37844;DHT22;23930;57.632;18.292;2022-07-23T10:26:58;19.90;99.90
37844;DHT22;23930;57.632;18.292;2022-07-23T10:32:44;20.20;99.90
37844;DHT22;23930;57.632;18.292;2022-07-23T10:35:33;20.30;99.90
37844;DHT22;23930;57.632;18.292;2022-07-23T10:38:16;20.30;99.90
37844;DHT22;23930;57.632;18.292;2022-07-23T10:40:57;20.30;99.90
37844;DHT22;23930;57.632;18.292;2022-07-23T10:43:24;20.50;99.90
37844;DHT22;23930;57.632;18.292;2022-07-23T10:45:52;20.50;99.90
37844;DHT22;23930;57.632;18.292;2022-07-23T10:48:24;20.80;99.90
37844;DHT22;23930;57.632;18.292;2022-07-23T10:59:17;20.60;99.90
37844;DHT22;23930;57.632;18.292;2022-07-23T11:01:45;20.60;99.90
37844;DHT22;23930;57.632;18.292;2022-07-23T11:04:12;20.60;99.90
37844;DHT22;23930;57.632;18.292;2022-07-23T11:09:42;20.50;99.90
37844;DHT22;23930;57.632;18.292;2022-07-23T11:17:39;21.30;99.90
37844;DHT22;23930;57.632;18.292;2022-07-23T11:20:26;21.10;99.90
37844;DHT22;23930;57.632;18.292;2022-07-23T11:22:58;21.20;99.90
37844;DHT22;23930;57.632;18.292;2022-07-23T11:27:52;21.30;99.90
37844;DHT22;23930;57.632;18.292;2022-07-23T11:33:18;21.10;99.90
37844;DHT22;23930;57.632;18.292;2022-07-23T11:35:48;20.90;99.90
37844;DHT22;23930;57.632;18.292;2022-07-23T11:38:17;20.90;99.90
37844;DHT22;23930;57.632;18.292;2022-07-23T11:40:47;20.80;99.90
37844;DHT22;23930;57.632;18.292;2022-07-23T11:43:15;20.80;99.90
37844;DHT22;23930;57.632;18.292;2022-07-23T11:45:45;20.50;99.90
37844;DHT22;23930;57.632;18.292;2022-07-23T11:48:30;20.60;99.90
37844;DHT22;23930;57.632;18.292;2022-07-23T11:51:02;20.40;99.90
37844;DHT22;23930;57.632;18.292;2022-07-23T11:53:32;20.40;99.90
37844;DHT22;23930;57.632;18.292;2022-07-23T11:56:07;20.30;99.90
37844;DHT22;23930;57.632;18.292;2022-07-23T11:58:34;20.30;99.90
37844;DHT22;23930;57.632;18.292;2022-07-23T12:01:03;20.30;99.90
37844;DHT22;23930;57.632;18.292;2022-07-23T12:03:30;20.20;99.90
37844;DHT22;23930;57.632;18.292;2022-07-23T12:05:59;20.10;99.90
37844;DHT22;23930;57.632;18.292;2022-07-23T12:08:27;20.00;99.90
37844;DHT22;23930;57.632;18.292;2022-07-23T12:10:53;19.90;99.90
37844;DHT22;23930;57.632;18.292;2022-07-23T12:13:21;19.80;99.90
37844;DHT22;23930;57.632;18.292;2022-07-23T12:15:52;19.80;99.90
37844;DHT22;23930;57.632;18.292;2022-07-23T12:18:22;19.70;99.90
37844;DHT22;23930;57.632;18.292;2022-07-23T12:20:53;19.60;99.90
37844;DHT22;23930;57.632;18.292;2022-07-23T12:23:22;19.50;99.90
37844;DHT22;23930;57.632;18.292;2022-07-23T12:25:50;19.40;99.90
37844;DHT22;23930;57.632;18.292;2022-07-23T12:28:21;19.30;99.90
37844;DHT22;23930;57.632;18.292;2022-07-23T12:30:53;19.30;99.90
37844;DHT22;23930;57.632;18.292;2022-07-23T12:35:55;19.10;99.90
37844;DHT22;23930;57.632;18.292;2022-07-23T12:38:25;19.10;99.90
37844;DHT22;23930;57.632;18.292;2022-07-23T12:40:54;19.00;99.90
37844;DHT22;23930;57.632;18.292;2022-07-23T12:45:56;19.00;99.90
37844;DHT22;23930;57.632;18.292;2022-07-23T12:53:50;18.90;99.90
37844;DHT22;23930;57.632;18.292;2022-07-23T12:56:20;18.90;99.90
37844;DHT22;23930;57.632;18.292;2022-07-23T12:58:49;18.90;99.90
37844;DHT22;23930;57.632;18.292;2022-07-23T13:04:13;18.90;99.90
37844;DHT22;23930;57.632;18.292;2022-07-23T13:06:54;18.90;99.90
37844;DHT22;23930;57.632;18.292;2022-07-23T13:09:28;18.90;99.90
37844;DHT22;23930;57.632;18.292;2022-07-23T13:11:59;18.90;99.90
37844;DHT22;23930;57.632;18.292;2022-07-23T13:14:26;18.90;99.90
37844;DHT22;23930;57.632;18.292;2022-07-23T13:16:55;18.90;99.90
37844;DHT22;23930;57.632;18.292;2022-07-23T13:19:24;18.80;99.90
37844;DHT22;23930;57.632;18.292;2022-07-23T13:21:53;18.80;99.90
37844;DHT22;23930;57.632;18.292;2022-07-23T13:24:20;18.60;99.90
37844;DHT22;23930;57.632;18.292;2022-07-23T13:26:47;18.60;99.90
37844;DHT22;23930;57.632;18.292;2022-07-23T13:29:17;18.60;99.90
37844;DHT22;23930;57.632;18.292;2022-07-23T13:31:46;18.60;99.90
37844;DHT22;23930;57.632;18.292;2022-07-23T13:34:14;18.60;99.90
37844;DHT22;23930;57.632;18.292;2022-07-23T13:36:41;18.60;99.90
37844;DHT22;23930;57.632;18.292;2022-07-23T13:39:10;18.60;99.90
37844;DHT22;23930;57.632;18.292;2022-07-23T13:41:37;18.70;99.90
37844;DHT22;23930;57.632;18.292;2022-07-23T13:44:04;18.70;99.90
37844;DHT22;23930;57.632;18.292;2022-07-23T13:46:33;18.70;99.90
37844;DHT22;23930;57.632;18.292;2022-07-23T13:49:01;18.80;99.90
37844;DHT22;23930;57.632;18.292;2022-07-23T13:51:29;18.80;99.90
37844;DHT22;23930;57.632;18.292;2022-07-23T13:53:56;18.80;99.90
37844;DHT22;23930;57.632;18.292;2022-07-23T13:56:26;18.90;99.90
37844;DHT22;23930;57.632;18.292;2022-07-23T13:58:53;18.90;99.90
37844;DHT22;23930;57.632;18.292;2022-07-23T14:01:20;18.90;99.90
37844;DHT22;23930;57.632;18.292;2022-07-23T14:03:47;18.90;99.90
37844;DHT22;23930;57.632;18.292;2022-07-23T14:06:14;19.00;99.90
37844;DHT22;23930;57.632;18.292;2022-07-23T14:08:43;19.10;99.90
37844;DHT22;23930;57.632;18.292;2022-07-23T14:11:12;19.10;99.90
37844;DHT22;23930;57.632;18.292;2022-07-23T14:13:39;19.10;99.90
37844;DHT22;23930;57.632;18.292;2022-07-23T14:16:07;19.20;99.90
37844;DHT22;23930;57.632;18.292;2022-07-23T14:18:34;19.30;99.90
37844;DHT22;23930;57.632;18.292;2022-07-23T14:21:02;19.40;99.90
37844;DHT22;23930;57.632;18.292;2022-07-23T14:23:29;19.40;99.90
37844;DHT22;23930;57.632;18.292;2022-07-23T14:25:56;19.50;99.90
37844;DHT22;23930;57.632;18.292;2022-07-23T14:28:24;19.60;99.90
37844;DHT22;23930;57.632;18.292;2022-07-23T14:30:51;19.60;99.90
37844;DHT22;23930;57.632;18.292;2022-07-23T14:33:18;19.80;99.90
37844;DHT22;23930;57.632;18.292;2022-07-23T14:35:46;19.80;99.90
37844;DHT22;23930;57.632;18.292;2022-07-23T14:38:13;20.00;99.90
37844;DHT22;23930;57.632;18.292;2022-07-23T14:40:41;20.20;99.90
37844;DHT22;23930;57.632;18.292;2022-07-23T14:43:08;20.30;99.90
37844;DHT22;23930;57.632;18.292;2022-07-23T14:45:38;20.40;99.90
37844;DHT22;23930;57.632;18.292;2022-07-23T14:48:05;20.50;99.90
37844;DHT22;23930;57.632;18.292;2022-07-23T14:50:34;20.30;99.90
37844;DHT22;23930;57.632;18.292;2022-07-23T14:53:01;20.20;99.90
37844;DHT22;23930;57.632;18.292;2022-07-23T14:55:31;20.30;99.90
37844;DHT22;23930;57.632;18.292;2022-07-23T14:57:58;20.20;99.90
37844;DHT22;23930;57.632;18.292;2022-07-23T15:00:26;20.10;99.90
37844;DHT22;23930;57.632;18.292;2022-07-23T15:02:54;20.00;99.90
37844;DHT22;23930;57.632;18.292;2022-07-23T15:05:41;19.80;99.90
37844;DHT22;23930;57.632;18.292;2022-07-23T15:08:08;19.70;99.90
37844;DHT22;23930;57.632;18.292;2022-07-23T15:10:35;19.60;99.90
37844;DHT22;23930;57.632;18.292;2022-07-23T15:13:03;19.50;99.90
37844;DHT22;23930;57.632;18.292;2022-07-23T15:15:30;19.50;99.90
37844;DHT22;23930;57.632;18.292;2022-07-23T15:17:58;19.60;99.90
37844;DHT22;23930;57.632;18.292;2022-07-23T15:20:26;19.60;99.90
37844;DHT22;23930;57.632;18.292;2022-07-23T15:23:05;19.50;99.90
37844;DHT22;23930;57.632;18.292;2022-07-23T15:25:34;19.60;99.90
37844;DHT22;23930;57.632;18.292;2022-07-23T15:28:02;19.60;99.90
37844;DHT22;23930;57.632;18.292;2022-07-23T15:30:29;19.50;99.90
37844;DHT22;23930;57.632;18.292;2022-07-23T15:32:56;19.40;99.90
37844;DHT22;23930;57.632;18.292;2022-07-23T15:35:24;19.50;99.90
37844;DHT22;23930;57.632;18.292;2022-07-23T15:37:51;19.50;99.90
37844;DHT22;23930;57.632;18.292;2022-07-23T15:40:20;19.50;99.90
37844;DHT22;23930;57.632;18.292;2022-07-23T15:42:48;19.40;99.90
37844;DHT22;23930;57.632;18.292;2022-07-23T15:45:15;19.50;99.90
37844;DHT22;23930;57.632;18.292;2022-07-23T15:47:43;19.40;99.90
37844;DHT22;23930;57.632;18.292;2022-07-23T15:50:11;19.40;99.90
37844;DHT22;23930;57.632;18.292;2022-07-23T15:52:37;19.50;99.90
37844;DHT22;23930;57.632;18.292;2022-07-23T15:55:05;19.40;99.90
37844;DHT22;23930;57.632;18.292;2022-07-23T15:57:42;19.40;99.90
37844;DHT22;23930;57.632;18.292;2022-07-23T16:00:10;19.40;99.90
37844;DHT22;23930;57.632;18.292;2022-07-23T16:02:37;19.40;99.90
37844;DHT22;23930;57.632;18.292;2022-07-23T16:05:05;19.20;99.90
37844;DHT22;23930;57.632;18.292;2022-07-23T16:07:32;19.10;99.90
37844;DHT22;23930;57.632;18.292;2022-07-23T16:10:07;19.00;99.90
37844;DHT22;23930;57.632;18.292;2022-07-23T16:12:35;19.00;99.90
37844;DHT22;23930;57.632;18.292;2022-07-23T16:15:03;18.80;99.90
37844;DHT22;23930;57.632;18.292;2022-07-23T16:17:33;18.80;99.90